createdAt,value
2022-12-25T00:09:53.200Z,94.49
2022-12-25T00:19:57.691Z,94.52
2022-12-25T00:30:00.715Z,94.50
2022-12-25T00:40:06.128Z,94.54
2022-12-25T00:50:09.971Z,94.72
2022-12-25T01:00:16.984Z,94.79
2022-12-25T01:10:22.952Z,94.94
2022-12-25T01:20:27.340Z,95.00
2022-12-25T01:30:30.481Z,94.99
2022-12-25T01:40:35.909Z,95.07
2022-12-25T01:50:41.217Z,95.19
2022-12-25T02:00:46.495Z,95.20
2022-12-25T02:10:49.592Z,95.21
2022-12-25T02:21:30.594Z,95.18
2022-12-25T02:31:41.110Z,95.25
2022-12-25T02:41:48.050Z,95.38
2022-12-25T02:52:15.506Z,95.37
2022-12-25T03:02:38.163Z,95.52
2022-12-25T03:12:50.512Z,95.62
2022-12-25T03:23:13.757Z,95.44
2022-12-25T03:33:44.581Z,95.56
2022-12-25T03:44:27.938Z,95.51
2022-12-25T03:54:57.048Z,95.53
2022-12-25T04:05:18.465Z,95.78
2022-12-25T04:15:41.422Z,95.82
2022-12-25T04:26:03.239Z,96.05
2022-12-25T04:36:09.539Z,95.99
2022-12-25T04:46:14.553Z,95.71
2022-12-25T04:56:19.873Z,95.46
2022-12-25T05:06:22.804Z,95.13
2022-12-25T05:16:27.510Z,94.71
2022-12-25T05:26:30.793Z,94.02
2022-12-25T05:36:35.612Z,93.91
2022-12-25T05:46:38.655Z,94.06
2022-12-25T05:56:46.520Z,94.10
2022-12-25T06:06:49.450Z,94.25
2022-12-25T06:16:55.030Z,94.14
2022-12-25T06:27:06.934Z,94.21
2022-12-25T06:37:11.580Z,93.79
2022-12-25T06:47:14.569Z,92.67
2022-12-25T06:57:20.021Z,92.38
2022-12-25T07:07:24.365Z,92.22
2022-12-25T07:17:29.895Z,93.03
2022-12-25T07:27:33.819Z,92.80
2022-12-25T07:37:39.928Z,90.27
2022-12-25T07:47:44.232Z,91.12
2022-12-25T07:57:49.488Z,91.37
2022-12-25T08:07:57.370Z,91.35
2022-12-25T08:18:03.651Z,91.36
2022-12-25T08:28:06.999Z,90.99
2022-12-25T08:38:11.923Z,90.14
2022-12-25T08:48:15.377Z,90.21
2022-12-25T08:58:20.471Z,89.45
2022-12-25T09:08:24.405Z,89.85
2022-12-25T09:18:29.816Z,88.46
2022-12-25T09:28:35.083Z,87.67
2022-12-25T09:38:40.170Z,85.01
2022-12-25T09:48:49.130Z,84.53
2022-12-25T09:58:55.222Z,83.60
2022-12-25T10:09:18.282Z,82.48
2022-12-25T10:19:41.252Z,81.73
2022-12-25T10:29:47.209Z,80.50
2022-12-25T10:39:53.164Z,82.53
2022-12-25T10:49:57.472Z,81.64
2022-12-25T11:00:08.745Z,81.56
2022-12-25T11:10:22.349Z,81.63
2022-12-25T11:20:28.340Z,81.89
2022-12-25T11:30:34.956Z,81.25
2022-12-25T11:40:47.955Z,79.75
2022-12-25T11:50:55.962Z,80.00
2022-12-25T12:01:05.937Z,80.88
2022-12-25T12:11:19.764Z,81.18
2022-12-25T12:21:26.997Z,81.72
2022-12-25T12:31:40.915Z,81.59
2022-12-25T12:41:48.540Z,81.12
2022-12-25T12:52:03.240Z,81.42
2022-12-25T13:02:35.642Z,80.56
2022-12-25T13:12:39.751Z,81.69
2022-12-25T13:22:52.399Z,82.29
2022-12-25T13:32:57.718Z,81.56
2022-12-25T13:43:03.330Z,81.04
2022-12-25T13:53:13.482Z,80.98
2022-12-25T14:03:20.517Z,80.14
2022-12-25T14:13:29.970Z,80.56
2022-12-25T14:23:42.245Z,79.93
2022-12-25T14:33:45.509Z,79.95
2022-12-25T14:43:55.276Z,81.13
2022-12-25T14:54:02.022Z,79.12
2022-12-25T15:04:15.819Z,79.72
2022-12-25T15:14:20.938Z,78.91
2022-12-25T15:24:26.652Z,79.17
2022-12-25T15:34:31.071Z,79.93
2022-12-25T15:44:36.996Z,79.37
2022-12-25T15:54:40.965Z,79.07
2022-12-25T16:04:53.858Z,79.17
2022-12-25T16:15:00.501Z,78.40
2022-12-25T16:25:14.521Z,78.82
2022-12-25T16:35:18.970Z,79.51
2022-12-25T16:45:24.592Z,79.06
2022-12-25T16:55:30.352Z,79.52
2022-12-25T17:05:37.559Z,78.60
2022-12-25T17:15:46.655Z,78.34
2022-12-25T17:26:01.304Z,78.59
2022-12-25T17:36:08.781Z,78.47
2022-12-25T17:46:16.763Z,78.28
2022-12-25T17:56:24.209Z,77.74
2022-12-25T18:17:34.956Z,77.54
2022-12-25T18:27:50.145Z,77.02
2022-12-25T18:37:55.787Z,77.35
2022-12-25T18:48:03.634Z,77.21
2022-12-25T18:58:11.289Z,77.42
2022-12-25T19:08:17.579Z,77.92
2022-12-25T19:18:24.836Z,76.71
2022-12-25T19:28:30.513Z,75.63
2022-12-25T19:38:34.370Z,75.55
2022-12-25T19:48:38.988Z,75.81
2022-12-25T19:58:42.057Z,76.50
2022-12-25T20:08:49.026Z,76.05
2022-12-25T20:18:53.827Z,76.19
2022-12-25T20:29:01.753Z,76.44
2022-12-25T20:39:07.160Z,75.93
2022-12-25T20:49:13.149Z,76.91
2022-12-25T20:59:16.175Z,77.50
2022-12-25T21:09:21.215Z,77.36
2022-12-25T21:19:41.264Z,77.92
2022-12-25T21:29:45.703Z,77.77
2022-12-25T21:39:50.599Z,77.79
2022-12-25T21:50:13.647Z,77.28
2022-12-25T22:00:17.910Z,77.15
2022-12-25T22:10:22.487Z,77.93
2022-12-25T22:20:26.982Z,77.55
2022-12-25T22:30:32.170Z,77.88
2022-12-25T22:40:38.064Z,77.93
2022-12-25T22:50:42.637Z,78.28
2022-12-25T23:00:46.545Z,79.15
2022-12-25T23:10:52.267Z,79.43
2022-12-25T23:21:18.837Z,79.58
2022-12-25T23:31:25.879Z,79.16
2022-12-25T23:41:29.026Z,79.37
2022-12-25T23:51:35.279Z,79.38
